Terminal Aerodrome Forecast
Issued by NWS

Home | Current Version | Previous Version | Text Only | Print | Product List | Glossary On
Versions: 1 2 3 4 5 6 7 8 9 10 11 12 13 14 15 16 17 18 19
000
FTUS43 KAPX 241120
TAFMBL
TAF
KMBL 241120Z 2412/2512 16010KT 6SM -SHRA VCTS BKN040CB OVC150
      WS015/20028KT
     FM241300 18011G19KT P6SM VCSH BKN025 OVC080
     FM242100 21009G16KT P6SM BKN050
     FM250200 23005KT P6SM BKN025=

USA.gov is the U.S. government's official web portal to all federal, state and local government web resources and services.